sensor_id;sensor_type;location;lat;lon;timestamp;P1;durP1;ratioP1;P2;durP2;ratioP2
78895;SDS011;68284;59.124;37.910;2023-08-06T00:01:05;11.40;;;6.95;;
78895;SDS011;68284;59.124;37.910;2023-08-06T00:03:37;6.93;;;5.80;;
78895;SDS011;68284;59.124;37.910;2023-08-06T00:06:09;10.90;;;7.25;;
78895;SDS011;68284;59.124;37.910;2023-08-06T00:08:41;11.77;;;6.30;;
78895;SDS011;68284;59.124;37.910;2023-08-06T00:11:12;6.45;;;5.05;;
78895;SDS011;68284;59.124;37.910;2023-08-06T00:13:44;6.57;;;5.93;;
78895;SDS011;68284;59.124;37.910;2023-08-06T00:16:17;6.53;;;5.28;;
78895;SDS011;68284;59.124;37.910;2023-08-06T00:18:48;10.88;;;7.13;;
78895;SDS011;68284;59.124;37.910;2023-08-06T00:21:20;7.82;;;5.50;;
78895;SDS011;68284;59.124;37.910;2023-08-06T00:23:52;7.32;;;6.28;;
78895;SDS011;68284;59.124;37.910;2023-08-06T00:26:24;6.80;;;6.20;;
78895;SDS011;68284;59.124;37.910;2023-08-06T00:28:56;6.90;;;5.03;;
78895;SDS011;68284;59.124;37.910;2023-08-06T00:31:28;9.15;;;6.82;;
78895;SDS011;68284;59.124;37.910;2023-08-06T00:33:59;10.77;;;6.80;;
78895;SDS011;68284;59.124;37.910;2023-08-06T00:36:31;7.35;;;6.32;;
78895;SDS011;68284;59.124;37.910;2023-08-06T00:39:02;7.18;;;5.03;;
78895;SDS011;68284;59.124;37.910;2023-08-06T00:41:34;8.55;;;6.00;;
78895;SDS011;68284;59.124;37.910;2023-08-06T00:44:05;7.47;;;5.72;;
78895;SDS011;68284;59.124;37.910;2023-08-06T00:46:38;6.65;;;4.97;;
78895;SDS011;68284;59.124;37.910;2023-08-06T00:49:11;7.80;;;4.78;;
78895;SDS011;68284;59.124;37.910;2023-08-06T00:51:42;9.60;;;5.28;;
78895;SDS011;68284;59.124;37.910;2023-08-06T00:57:12;10.57;;;5.72;;
78895;SDS011;68284;59.124;37.910;2023-08-06T00:59:43;6.10;;;5.55;;
78895;SDS011;68284;59.124;37.910;2023-08-06T01:02:16;5.32;;;4.82;;
78895;SDS011;68284;59.124;37.910;2023-08-06T01:04:48;9.75;;;6.65;;
78895;SDS011;68284;59.124;37.910;2023-08-06T01:11:00;8.02;;;4.85;;
78895;SDS011;68284;59.124;37.910;2023-08-06T01:16:18;5.35;;;4.28;;
78895;SDS011;68284;59.124;37.910;2023-08-06T01:18:51;5.13;;;4.13;;
78895;SDS011;68284;59.124;37.910;2023-08-06T01:21:23;4.72;;;4.25;;
78895;SDS011;68284;59.124;37.910;2023-08-06T01:23:54;5.18;;;4.22;;
78895;SDS011;68284;59.124;37.910;2023-08-06T01:29:19;6.45;;;5.85;;
78895;SDS011;68284;59.124;37.910;2023-08-06T01:32:02;6.32;;;4.40;;
78895;SDS011;68284;59.124;37.910;2023-08-06T01:34:35;5.53;;;4.40;;
78895;SDS011;68284;59.124;37.910;2023-08-06T01:37:10;6.45;;;5.68;;
78895;SDS011;68284;59.124;37.910;2023-08-06T01:39:42;7.13;;;5.30;;
78895;SDS011;68284;59.124;37.910;2023-08-06T01:42:15;5.75;;;5.25;;
78895;SDS011;68284;59.124;37.910;2023-08-06T01:44:46;5.63;;;4.30;;
78895;SDS011;68284;59.124;37.910;2023-08-06T01:47:18;5.70;;;5.03;;
78895;SDS011;68284;59.124;37.910;2023-08-06T01:49:49;6.07;;;4.88;;
78895;SDS011;68284;59.124;37.910;2023-08-06T01:52:22;5.97;;;5.13;;
78895;SDS011;68284;59.124;37.910;2023-08-06T01:54:56;4.60;;;4.10;;
78895;SDS011;68284;59.124;37.910;2023-08-06T01:57:28;4.90;;;4.32;;
78895;SDS011;68284;59.124;37.910;2023-08-06T01:59:59;5.93;;;4.90;;
78895;SDS011;68284;59.124;37.910;2023-08-06T02:02:32;7.85;;;4.53;;
78895;SDS011;68284;59.124;37.910;2023-08-06T02:05:04;5.47;;;4.97;;
78895;SDS011;68284;59.124;37.910;2023-08-06T02:07:36;5.32;;;4.55;;
78895;SDS011;68284;59.124;37.910;2023-08-06T02:10:08;7.45;;;4.38;;
78895;SDS011;68284;59.124;37.910;2023-08-06T02:12:39;5.35;;;4.85;;
78895;SDS011;68284;59.124;37.910;2023-08-06T02:15:11;5.85;;;4.28;;
78895;SDS011;68284;59.124;37.910;2023-08-06T02:17:43;5.68;;;3.70;;
78895;SDS011;68284;59.124;37.910;2023-08-06T02:20:14;4.95;;;4.53;;
78895;SDS011;68284;59.124;37.910;2023-08-06T02:22:47;4.90;;;3.90;;
78895;SDS011;68284;59.124;37.910;2023-08-06T02:25:19;5.00;;;4.07;;
78895;SDS011;68284;59.124;37.910;2023-08-06T02:27:51;4.95;;;3.80;;
78895;SDS011;68284;59.124;37.910;2023-08-06T02:30:23;5.57;;;5.07;;
78895;SDS011;68284;59.124;37.910;2023-08-06T02:32:55;4.80;;;3.97;;
78895;SDS011;68284;59.124;37.910;2023-08-06T02:35:28;4.78;;;4.35;;
78895;SDS011;68284;59.124;37.910;2023-08-06T02:38:01;5.40;;;3.33;;
78895;SDS011;68284;59.124;37.910;2023-08-06T02:40:33;4.82;;;3.97;;
78895;SDS011;68284;59.124;37.910;2023-08-06T02:43:05;6.28;;;3.75;;
78895;SDS011;68284;59.124;37.910;2023-08-06T02:45:37;4.43;;;4.03;;
78895;SDS011;68284;59.124;37.910;2023-08-06T02:48:08;9.43;;;4.45;;
78895;SDS011;68284;59.124;37.910;2023-08-06T02:50:40;6.30;;;3.55;;
78895;SDS011;68284;59.124;37.910;2023-08-06T02:53:13;4.50;;;4.20;;
78895;SDS011;68284;59.124;37.910;2023-08-06T02:55:47;4.53;;;4.13;;
78895;SDS011;68284;59.124;37.910;2023-08-06T02:58:22;4.10;;;3.45;;
78895;SDS011;68284;59.124;37.910;2023-08-06T03:01:03;4.32;;;3.90;;
78895;SDS011;68284;59.124;37.910;2023-08-06T03:03:40;4.25;;;3.45;;
78895;SDS011;68284;59.124;37.910;2023-08-06T03:11:21;3.25;;;2.88;;
78895;SDS011;68284;59.124;37.910;2023-08-06T03:13:56;3.40;;;2.95;;
78895;SDS011;68284;59.124;37.910;2023-08-06T03:16:27;4.30;;;3.08;;
78895;SDS011;68284;59.124;37.910;2023-08-06T03:18:59;4.40;;;2.65;;
78895;SDS011;68284;59.124;37.910;2023-08-06T03:21:33;6.05;;;3.00;;
78895;SDS011;68284;59.124;37.910;2023-08-06T03:24:06;9.45;;;3.92;;
78895;SDS011;68284;59.124;37.910;2023-08-06T03:26:40;5.75;;;3.45;;
78895;SDS011;68284;59.124;37.910;2023-08-06T03:29:12;4.70;;;2.92;;
78895;SDS011;68284;59.124;37.910;2023-08-06T03:31:43;3.47;;;2.83;;
78895;SDS011;68284;59.124;37.910;2023-08-06T03:34:18;3.97;;;3.55;;
78895;SDS011;68284;59.124;37.910;2023-08-06T03:36:53;4.88;;;2.58;;
78895;SDS011;68284;59.124;37.910;2023-08-06T03:39:26;3.88;;;2.40;;
78895;SDS011;68284;59.124;37.910;2023-08-06T03:41:57;3.83;;;3.53;;
78895;SDS011;68284;59.124;37.910;2023-08-06T03:47:02;7.65;;;3.42;;
78895;SDS011;68284;59.124;37.910;2023-08-06T03:49:33;6.43;;;2.97;;
78895;SDS011;68284;59.124;37.910;2023-08-06T03:52:05;6.43;;;3.15;;
78895;SDS011;68284;59.124;37.910;2023-08-06T03:54:37;4.05;;;3.10;;
78895;SDS011;68284;59.124;37.910;2023-08-06T03:57:10;6.78;;;3.40;;
78895;SDS011;68284;59.124;37.910;2023-08-06T03:59:42;4.90;;;3.13;;
78895;SDS011;68284;59.124;37.910;2023-08-06T04:02:14;6.72;;;3.08;;
78895;SDS011;68284;59.124;37.910;2023-08-06T04:04:45;3.47;;;3.15;;
78895;SDS011;68284;59.124;37.910;2023-08-06T04:07:17;4.18;;;2.92;;
78895;SDS011;68284;59.124;37.910;2023-08-06T04:09:52;3.55;;;2.83;;
78895;SDS011;68284;59.124;37.910;2023-08-06T04:12:25;5.13;;;2.63;;
78895;SDS011;68284;59.124;37.910;2023-08-06T04:14:58;5.82;;;3.60;;
78895;SDS011;68284;59.124;37.910;2023-08-06T04:17:30;5.95;;;3.72;;
78895;SDS011;68284;59.124;37.910;2023-08-06T04:20:02;3.85;;;3.55;;
78895;SDS011;68284;59.124;37.910;2023-08-06T04:22:34;3.58;;;2.70;;
78895;SDS011;68284;59.124;37.910;2023-08-06T04:25:05;4.03;;;3.70;;
78895;SDS011;68284;59.124;37.910;2023-08-06T04:27:38;4.22;;;2.70;;
78895;SDS011;68284;59.124;37.910;2023-08-06T04:30:13;7.13;;;3.28;;
78895;SDS011;68284;59.124;37.910;2023-08-06T04:32:46;4.78;;;3.17;;
78895;SDS011;68284;59.124;37.910;2023-08-06T04:35:17;13.52;;;4.90;;
78895;SDS011;68284;59.124;37.910;2023-08-06T04:40:21;4.93;;;2.95;;
78895;SDS011;68284;59.124;37.910;2023-08-06T04:42:53;4.13;;;3.25;;
78895;SDS011;68284;59.124;37.910;2023-08-06T04:45:25;5.80;;;3.55;;
78895;SDS011;68284;59.124;37.910;2023-08-06T04:50:28;3.50;;;3.25;;
78895;SDS011;68284;59.124;37.910;2023-08-06T04:52:59;6.13;;;2.88;;
78895;SDS011;68284;59.124;37.910;2023-08-06T04:55:34;3.78;;;3.28;;
78895;SDS011;68284;59.124;37.910;2023-08-06T04:58:05;5.57;;;3.67;;
78895;SDS011;68284;59.124;37.910;2023-08-06T05:00:37;3.45;;;2.50;;
78895;SDS011;68284;59.124;37.910;2023-08-06T05:03:09;4.57;;;2.80;;
78895;SDS011;68284;59.124;37.910;2023-08-06T05:05:40;6.93;;;2.88;;
78895;SDS011;68284;59.124;37.910;2023-08-06T05:10:50;3.78;;;2.83;;
78895;SDS011;68284;59.124;37.910;2023-08-06T05:13:21;3.97;;;2.63;;
78895;SDS011;68284;59.124;37.910;2023-08-06T05:15:53;3.00;;;2.70;;
78895;SDS011;68284;59.124;37.910;2023-08-06T05:18:24;3.55;;;3.20;;
78895;SDS011;68284;59.124;37.910;2023-08-06T05:20:56;4.30;;;3.40;;
78895;SDS011;68284;59.124;37.910;2023-08-06T05:23:28;4.07;;;3.10;;
78895;SDS011;68284;59.124;37.910;2023-08-06T05:25:59;2.97;;;2.58;;
78895;SDS011;68284;59.124;37.910;2023-08-06T05:28:31;5.78;;;2.53;;
78895;SDS011;68284;59.124;37.910;2023-08-06T05:33:37;4.78;;;3.17;;
78895;SDS011;68284;59.124;37.910;2023-08-06T05:36:08;4.88;;;3.10;;
78895;SDS011;68284;59.124;37.910;2023-08-06T05:38:40;3.70;;;2.53;;
78895;SDS011;68284;59.124;37.910;2023-08-06T05:41:13;4.25;;;2.60;;
78895;SDS011;68284;59.124;37.910;2023-08-06T05:43:45;3.22;;;2.90;;
78895;SDS011;68284;59.124;37.910;2023-08-06T05:46:16;4.25;;;2.90;;
78895;SDS011;68284;59.124;37.910;2023-08-06T05:48:48;3.47;;;3.00;;
78895;SDS011;68284;59.124;37.910;2023-08-06T05:51:21;2.70;;;2.50;;
78895;SDS011;68284;59.124;37.910;2023-08-06T05:53:52;3.83;;;2.40;;
78895;SDS011;68284;59.124;37.910;2023-08-06T05:56:25;2.45;;;2.15;;
78895;SDS011;68284;59.124;37.910;2023-08-06T05:58:56;2.83;;;2.63;;
78895;SDS011;68284;59.124;37.910;2023-08-06T06:01:28;2.95;;;1.90;;
78895;SDS011;68284;59.124;37.910;2023-08-06T06:03:59;3.80;;;2.03;;
78895;SDS011;68284;59.124;37.910;2023-08-06T06:06:30;4.35;;;2.35;;
78895;SDS011;68284;59.124;37.910;2023-08-06T06:09:02;3.30;;;3.00;;
78895;SDS011;68284;59.124;37.910;2023-08-06T06:11:35;2.13;;;1.98;;
78895;SDS011;68284;59.124;37.910;2023-08-06T06:14:06;5.90;;;1.70;;
78895;SDS011;68284;59.124;37.910;2023-08-06T06:16:38;4.47;;;2.90;;
78895;SDS011;68284;59.124;37.910;2023-08-06T06:19:11;4.55;;;2.05;;
78895;SDS011;68284;59.124;37.910;2023-08-06T06:21:43;3.72;;;2.42;;
78895;SDS011;68284;59.124;37.910;2023-08-06T06:24:15;2.63;;;2.42;;
78895;SDS011;68284;59.124;37.910;2023-08-06T06:26:46;2.53;;;1.80;;
78895;SDS011;68284;59.124;37.910;2023-08-06T06:29:18;4.05;;;3.05;;
78895;SDS011;68284;59.124;37.910;2023-08-06T06:31:49;2.50;;;2.30;;
78895;SDS011;68284;59.124;37.910;2023-08-06T06:34:21;2.22;;;2.03;;
78895;SDS011;68284;59.124;37.910;2023-08-06T06:39:24;2.67;;;1.73;;
78895;SDS011;68284;59.124;37.910;2023-08-06T06:44:36;2.67;;;2.30;;
78895;SDS011;68284;59.124;37.910;2023-08-06T06:47:08;3.05;;;2.45;;
78895;SDS011;68284;59.124;37.910;2023-08-06T06:49:39;3.80;;;2.60;;
78895;SDS011;68284;59.124;37.910;2023-08-06T06:52:11;3.95;;;2.28;;
78895;SDS011;68284;59.124;37.910;2023-08-06T06:54:42;3.25;;;2.75;;
78895;SDS011;68284;59.124;37.910;2023-08-06T06:57:14;3.35;;;2.17;;
78895;SDS011;68284;59.124;37.910;2023-08-06T06:59:46;2.50;;;2.30;;
78895;SDS011;68284;59.124;37.910;2023-08-06T07:02:17;4.25;;;2.80;;
78895;SDS011;68284;59.124;37.910;2023-08-06T07:04:49;2.45;;;2.25;;
78895;SDS011;68284;59.124;37.910;2023-08-06T07:07:22;3.88;;;2.53;;
78895;SDS011;68284;59.124;37.910;2023-08-06T07:09:55;3.50;;;2.50;;
78895;SDS011;68284;59.124;37.910;2023-08-06T07:12:26;3.00;;;2.33;;
78895;SDS011;68284;59.124;37.910;2023-08-06T07:14:58;7.18;;;2.58;;
78895;SDS011;68284;59.124;37.910;2023-08-06T07:17:29;3.40;;;2.25;;
78895;SDS011;68284;59.124;37.910;2023-08-06T07:20:01;4.00;;;2.60;;
78895;SDS011;68284;59.124;37.910;2023-08-06T07:22:33;4.13;;;1.90;;
78895;SDS011;68284;59.124;37.910;2023-08-06T07:25:04;2.47;;;2.00;;
78895;SDS011;68284;59.124;37.910;2023-08-06T07:27:39;7.15;;;2.33;;
78895;SDS011;68284;59.124;37.910;2023-08-06T07:30:11;2.13;;;1.67;;
78895;SDS011;68284;59.124;37.910;2023-08-06T07:32:42;2.03;;;1.70;;
78895;SDS011;68284;59.124;37.910;2023-08-06T07:35:15;3.25;;;1.63;;
78895;SDS011;68284;59.124;37.910;2023-08-06T07:37:48;5.80;;;2.17;;
78895;SDS011;68284;59.124;37.910;2023-08-06T07:40:19;2.35;;;2.03;;
78895;SDS011;68284;59.124;37.910;2023-08-06T07:42:51;2.53;;;2.20;;
78895;SDS011;68284;59.124;37.910;2023-08-06T07:45:25;2.10;;;1.90;;
78895;SDS011;68284;59.124;37.910;2023-08-06T07:47:57;4.22;;;1.70;;
78895;SDS011;68284;59.124;37.910;2023-08-06T07:50:29;3.03;;;2.50;;
78895;SDS011;68284;59.124;37.910;2023-08-06T07:55:37;2.08;;;1.98;;
78895;SDS011;68284;59.124;37.910;2023-08-06T07:58:08;2.90;;;2.22;;
78895;SDS011;68284;59.124;37.910;2023-08-06T08:00:40;3.83;;;2.45;;
78895;SDS011;68284;59.124;37.910;2023-08-06T08:03:14;2.13;;;1.88;;
78895;SDS011;68284;59.124;37.910;2023-08-06T08:05:47;2.08;;;1.88;;
78895;SDS011;68284;59.124;37.910;2023-08-06T08:08:18;4.25;;;1.92;;
78895;SDS011;68284;59.124;37.910;2023-08-06T08:10:50;2.70;;;2.22;;
78895;SDS011;68284;59.124;37.910;2023-08-06T08:13:22;3.58;;;1.70;;
78895;SDS011;68284;59.124;37.910;2023-08-06T08:15:57;2.95;;;2.00;;
78895;SDS011;68284;59.124;37.910;2023-08-06T08:18:30;2.25;;;2.05;;
78895;SDS011;68284;59.124;37.910;2023-08-06T08:21:04;6.50;;;2.08;;
78895;SDS011;68284;59.124;37.910;2023-08-06T08:23:37;2.47;;;2.28;;
78895;SDS011;68284;59.124;37.910;2023-08-06T08:26:11;3.70;;;2.60;;
78895;SDS011;68284;59.124;37.910;2023-08-06T08:28:42;5.72;;;2.03;;
78895;SDS011;68284;59.124;37.910;2023-08-06T08:31:14;5.53;;;2.40;;
78895;SDS011;68284;59.124;37.910;2023-08-06T08:33:48;7.95;;;2.30;;
78895;SDS011;68284;59.124;37.910;2023-08-06T08:36:19;2.47;;;1.58;;
78895;SDS011;68284;59.124;37.910;2023-08-06T08:38:53;4.95;;;2.65;;
78895;SDS011;68284;59.124;37.910;2023-08-06T08:41:25;1.83;;;1.73;;
78895;SDS011;68284;59.124;37.910;2023-08-06T08:44:00;1.70;;;1.60;;
78895;SDS011;68284;59.124;37.910;2023-08-06T08:46:34;5.95;;;2.40;;
78895;SDS011;68284;59.124;37.910;2023-08-06T08:49:08;2.70;;;1.70;;
78895;SDS011;68284;59.124;37.910;2023-08-06T08:51:41;2.92;;;1.55;;
78895;SDS011;68284;59.124;37.910;2023-08-06T08:54:15;4.93;;;1.83;;
78895;SDS011;68284;59.124;37.910;2023-08-06T08:56:48;2.10;;;1.65;;
78895;SDS011;68284;59.124;37.910;2023-08-06T08:59:28;5.47;;;1.67;;
78895;SDS011;68284;59.124;37.910;2023-08-06T09:02:00;1.63;;;1.50;;
78895;SDS011;68284;59.124;37.910;2023-08-06T09:04:32;4.85;;;1.88;;
78895;SDS011;68284;59.124;37.910;2023-08-06T09:07:04;4.25;;;1.70;;
78895;SDS011;68284;59.124;37.910;2023-08-06T09:09:38;2.22;;;1.73;;
78895;SDS011;68284;59.124;37.910;2023-08-06T09:12:12;2.83;;;1.60;;
78895;SDS011;68284;59.124;37.910;2023-08-06T09:14:45;4.45;;;1.95;;
78895;SDS011;68284;59.124;37.910;2023-08-06T09:17:17;2.83;;;1.80;;
78895;SDS011;68284;59.124;37.910;2023-08-06T09:19:50;8.18;;;2.70;;
78895;SDS011;68284;59.124;37.910;2023-08-06T09:22:25;5.30;;;2.20;;
78895;SDS011;68284;59.124;37.910;2023-08-06T09:25:11;5.90;;;2.40;;
78895;SDS011;68284;59.124;37.910;2023-08-06T09:27:46;2.20;;;1.98;;
78895;SDS011;68284;59.124;37.910;2023-08-06T09:30:34;2.22;;;2.03;;
78895;SDS011;68284;59.124;37.910;2023-08-06T09:33:10;3.70;;;1.75;;
78895;SDS011;68284;59.124;37.910;2023-08-06T09:35:42;3.50;;;2.15;;
78895;SDS011;68284;59.124;37.910;2023-08-06T09:38:14;2.38;;;2.15;;
78895;SDS011;68284;59.124;37.910;2023-08-06T09:40:45;3.97;;;2.08;;
78895;SDS011;68284;59.124;37.910;2023-08-06T09:43:18;4.05;;;1.85;;
78895;SDS011;68284;59.124;37.910;2023-08-06T09:45:51;5.15;;;2.92;;
78895;SDS011;68284;59.124;37.910;2023-08-06T09:48:23;4.95;;;1.77;;
78895;SDS011;68284;59.124;37.910;2023-08-06T09:50:55;2.22;;;2.10;;
78895;SDS011;68284;59.124;37.910;2023-08-06T09:53:32;5.28;;;2.60;;
78895;SDS011;68284;59.124;37.910;2023-08-06T09:56:05;2.85;;;2.53;;
78895;SDS011;68284;59.124;37.910;2023-08-06T09:58:36;3.65;;;2.08;;
78895;SDS011;68284;59.124;37.910;2023-08-06T10:01:09;3.47;;;2.10;;
78895;SDS011;68284;59.124;37.910;2023-08-06T10:03:44;2.80;;;2.20;;
78895;SDS011;68284;59.124;37.910;2023-08-06T10:06:18;6.68;;;2.50;;
78895;SDS011;68284;59.124;37.910;2023-08-06T10:08:52;3.63;;;2.53;;
78895;SDS011;68284;59.124;37.910;2023-08-06T10:11:24;3.72;;;2.10;;
78895;SDS011;68284;59.124;37.910;2023-08-06T10:14:02;2.75;;;1.77;;
78895;SDS011;68284;59.124;37.910;2023-08-06T10:16:38;5.13;;;2.22;;
78895;SDS011;68284;59.124;37.910;2023-08-06T10:19:11;4.05;;;2.35;;
78895;SDS011;68284;59.124;37.910;2023-08-06T10:24:55;4.07;;;2.38;;
78895;SDS011;68284;59.124;37.910;2023-08-06T10:27:40;10.32;;;2.35;;
78895;SDS011;68284;59.124;37.910;2023-08-06T10:33:05;4.32;;;2.80;;
78895;SDS011;68284;59.124;37.910;2023-08-06T10:35:37;5.07;;;2.13;;
78895;SDS011;68284;59.124;37.910;2023-08-06T10:38:12;4.63;;;2.95;;
78895;SDS011;68284;59.124;37.910;2023-08-06T10:45:57;4.47;;;2.90;;
78895;SDS011;68284;59.124;37.910;2023-08-06T10:51:00;5.30;;;2.00;;
78895;SDS011;68284;59.124;37.910;2023-08-06T10:53:27;4.80;;;2.33;;
78895;SDS011;68284;59.124;37.910;2023-08-06T10:55:54;4.78;;;3.80;;
78895;SDS011;68284;59.124;37.910;2023-08-06T10:58:20;8.23;;;3.13;;
78895;SDS011;68284;59.124;37.910;2023-08-06T11:00:48;5.57;;;3.05;;
78895;SDS011;68284;59.124;37.910;2023-08-06T11:03:15;4.43;;;2.53;;
78895;SDS011;68284;59.124;37.910;2023-08-06T11:05:48;10.98;;;3.88;;
78895;SDS011;68284;59.124;37.910;2023-08-06T11:08:25;4.97;;;2.45;;
78895;SDS011;68284;59.124;37.910;2023-08-06T11:11:14;7.72;;;2.47;;
78895;SDS011;68284;59.124;37.910;2023-08-06T11:13:53;6.80;;;3.13;;
78895;SDS011;68284;59.124;37.910;2023-08-06T11:16:26;7.57;;;2.47;;
78895;SDS011;68284;59.124;37.910;2023-08-06T11:18:53;7.45;;;2.72;;
78895;SDS011;68284;59.124;37.910;2023-08-06T11:21:20;2.40;;;1.95;;
78895;SDS011;68284;59.124;37.910;2023-08-06T11:23:47;6.60;;;2.30;;
78895;SDS011;68284;59.124;37.910;2023-08-06T11:26:19;3.10;;;2.33;;
78895;SDS011;68284;59.124;37.910;2023-08-06T11:28:50;4.95;;;2.70;;
78895;SDS011;68284;59.124;37.910;2023-08-06T11:31:20;3.63;;;2.17;;
78895;SDS011;68284;59.124;37.910;2023-08-06T11:33:49;4.18;;;2.35;;
78895;SDS011;68284;59.124;37.910;2023-08-06T11:36:27;5.80;;;2.38;;
78895;SDS011;68284;59.124;37.910;2023-08-06T11:39:02;3.70;;;2.40;;
78895;SDS011;68284;59.124;37.910;2023-08-06T11:41:32;8.88;;;2.47;;
78895;SDS011;68284;59.124;37.910;2023-08-06T11:43:59;3.70;;;2.22;;
78895;SDS011;68284;59.124;37.910;2023-08-06T11:46:28;5.82;;;2.53;;
78895;SDS011;68284;59.124;37.910;2023-08-06T11:48:55;7.22;;;2.10;;
78895;SDS011;68284;59.124;37.910;2023-08-06T11:51:26;3.08;;;2.05;;
78895;SDS011;68284;59.124;37.910;2023-08-06T11:53:56;3.83;;;2.28;;
78895;SDS011;68284;59.124;37.910;2023-08-06T11:56:25;4.15;;;2.30;;
78895;SDS011;68284;59.124;37.910;2023-08-06T11:58:52;3.53;;;2.92;;
78895;SDS011;68284;59.124;37.910;2023-08-06T12:01:20;3.67;;;2.20;;
78895;SDS011;68284;59.124;37.910;2023-08-06T12:03:47;4.63;;;2.80;;
78895;SDS011;68284;59.124;37.910;2023-08-06T12:06:16;4.13;;;2.50;;
78895;SDS011;68284;59.124;37.910;2023-08-06T12:08:42;13.10;;;3.30;;
78895;SDS011;68284;59.124;37.910;2023-08-06T12:11:09;6.63;;;2.75;;
78895;SDS011;68284;59.124;37.910;2023-08-06T12:13:37;4.50;;;2.35;;
78895;SDS011;68284;59.124;37.910;2023-08-06T12:16:04;4.78;;;2.72;;
78895;SDS011;68284;59.124;37.910;2023-08-06T12:18:34;3.67;;;2.63;;
78895;SDS011;68284;59.124;37.910;2023-08-06T12:21:00;7.80;;;2.53;;
78895;SDS011;68284;59.124;37.910;2023-08-06T12:23:27;5.03;;;2.45;;
78895;SDS011;68284;59.124;37.910;2023-08-06T12:25:53;4.25;;;2.20;;
78895;SDS011;68284;59.124;37.910;2023-08-06T12:28:20;5.70;;;3.70;;
78895;SDS011;68284;59.124;37.910;2023-08-06T12:30:46;3.40;;;2.90;;
78895;SDS011;68284;59.124;37.910;2023-08-06T12:33:13;7.95;;;3.33;;
78895;SDS011;68284;59.124;37.910;2023-08-06T12:35:39;3.92;;;2.80;;
78895;SDS011;68284;59.124;37.910;2023-08-06T12:38:05;5.68;;;2.95;;
78895;SDS011;68284;59.124;37.910;2023-08-06T12:40:32;6.57;;;3.00;;
78895;SDS011;68284;59.124;37.910;2023-08-06T12:42:59;5.07;;;2.92;;
78895;SDS011;68284;59.124;37.910;2023-08-06T12:45:26;3.65;;;3.35;;
78895;SDS011;68284;59.124;37.910;2023-08-06T12:47:53;5.18;;;2.90;;
78895;SDS011;68284;59.124;37.910;2023-08-06T12:50:20;11.82;;;3.17;;
78895;SDS011;68284;59.124;37.910;2023-08-06T12:52:47;4.18;;;3.15;;
78895;SDS011;68284;59.124;37.910;2023-08-06T12:55:14;3.72;;;3.08;;
78895;SDS011;68284;59.124;37.910;2023-08-06T12:57:42;4.97;;;3.13;;
78895;SDS011;68284;59.124;37.910;2023-08-06T13:00:09;5.35;;;2.88;;
78895;SDS011;68284;59.124;37.910;2023-08-06T13:02:36;3.10;;;2.80;;
78895;SDS011;68284;59.124;37.910;2023-08-06T13:05:04;7.53;;;3.40;;
78895;SDS011;68284;59.124;37.910;2023-08-06T13:07:31;4.13;;;2.53;;
78895;SDS011;68284;59.124;37.910;2023-08-06T13:09:57;3.42;;;3.10;;
78895;SDS011;68284;59.124;37.910;2023-08-06T13:12:24;5.63;;;3.25;;
78895;SDS011;68284;59.124;37.910;2023-08-06T13:14:50;12.43;;;3.30;;
78895;SDS011;68284;59.124;37.910;2023-08-06T13:17:19;9.05;;;3.30;;
78895;SDS011;68284;59.124;37.910;2023-08-06T13:19:46;8.10;;;3.33;;
78895;SDS011;68284;59.124;37.910;2023-08-06T13:22:13;6.10;;;2.92;;
78895;SDS011;68284;59.124;37.910;2023-08-06T13:24:39;11.43;;;2.75;;
78895;SDS011;68284;59.124;37.910;2023-08-06T13:27:07;8.98;;;2.95;;
78895;SDS011;68284;59.124;37.910;2023-08-06T13:29:35;5.03;;;2.78;;
78895;SDS011;68284;59.124;37.910;2023-08-06T13:32:03;9.98;;;3.08;;
78895;SDS011;68284;59.124;37.910;2023-08-06T13:34:34;4.55;;;2.83;;
78895;SDS011;68284;59.124;37.910;2023-08-06T13:37:01;5.93;;;2.80;;
78895;SDS011;68284;59.124;37.910;2023-08-06T13:39:28;3.10;;;2.85;;
78895;SDS011;68284;59.124;37.910;2023-08-06T13:41:55;4.03;;;3.20;;
78895;SDS011;68284;59.124;37.910;2023-08-06T13:44:21;6.35;;;2.95;;
78895;SDS011;68284;59.124;37.910;2023-08-06T13:46:50;2.97;;;2.78;;
78895;SDS011;68284;59.124;37.910;2023-08-06T13:49:17;5.25;;;2.88;;
78895;SDS011;68284;59.124;37.910;2023-08-06T13:51:44;11.40;;;3.58;;
78895;SDS011;68284;59.124;37.910;2023-08-06T13:54:14;5.10;;;2.90;;
78895;SDS011;68284;59.124;37.910;2023-08-06T13:56:44;4.47;;;3.28;;
78895;SDS011;68284;59.124;37.910;2023-08-06T13:59:11;3.35;;;3.05;;
78895;SDS011;68284;59.124;37.910;2023-08-06T14:01:39;4.75;;;2.95;;
78895;SDS011;68284;59.124;37.910;2023-08-06T14:04:05;9.80;;;3.13;;
78895;SDS011;68284;59.124;37.910;2023-08-06T14:06:32;4.07;;;2.92;;
78895;SDS011;68284;59.124;37.910;2023-08-06T14:08:58;6.47;;;2.65;;
78895;SDS011;68284;59.124;37.910;2023-08-06T14:11:26;4.43;;;2.83;;
78895;SDS011;68284;59.124;37.910;2023-08-06T14:14:01;5.45;;;3.30;;
78895;SDS011;68284;59.124;37.910;2023-08-06T14:16:28;4.15;;;3.30;;
78895;SDS011;68284;59.124;37.910;2023-08-06T14:18:54;6.03;;;2.90;;
78895;SDS011;68284;59.124;37.910;2023-08-06T14:21:24;12.10;;;3.33;;
78895;SDS011;68284;59.124;37.910;2023-08-06T14:23:51;11.70;;;3.47;;
78895;SDS011;68284;59.124;37.910;2023-08-06T14:26:18;7.75;;;3.08;;
78895;SDS011;68284;59.124;37.910;2023-08-06T14:28:45;14.13;;;3.20;;
78895;SDS011;68284;59.124;37.910;2023-08-06T14:31:12;4.63;;;2.40;;
78895;SDS011;68284;59.124;37.910;2023-08-06T14:33:38;3.30;;;2.50;;
78895;SDS011;68284;59.124;37.910;2023-08-06T14:36:06;4.00;;;3.13;;
78895;SDS011;68284;59.124;37.910;2023-08-06T14:38:33;4.88;;;2.70;;
78895;SDS011;68284;59.124;37.910;2023-08-06T14:41:01;7.97;;;2.70;;
78895;SDS011;68284;59.124;37.910;2023-08-06T14:43:29;3.55;;;2.55;;
78895;SDS011;68284;59.124;37.910;2023-08-06T14:45:55;10.52;;;3.25;;
78895;SDS011;68284;59.124;37.910;2023-08-06T14:48:22;5.63;;;2.75;;
78895;SDS011;68284;59.124;37.910;2023-08-06T14:50:53;7.82;;;3.20;;
78895;SDS011;68284;59.124;37.910;2023-08-06T14:53:23;4.38;;;2.78;;
78895;SDS011;68284;59.124;37.910;2023-08-06T14:55:49;6.10;;;2.90;;
78895;SDS011;68284;59.124;37.910;2023-08-06T14:58:16;3.28;;;2.75;;
78895;SDS011;68284;59.124;37.910;2023-08-06T15:00:42;5.38;;;2.63;;
78895;SDS011;68284;59.124;37.910;2023-08-06T15:03:12;5.28;;;3.30;;
78895;SDS011;68284;59.124;37.910;2023-08-06T15:05:38;3.10;;;2.80;;
78895;SDS011;68284;59.124;37.910;2023-08-06T15:08:06;4.15;;;3.05;;
78895;SDS011;68284;59.124;37.910;2023-08-06T15:10:33;3.80;;;2.90;;
78895;SDS011;68284;59.124;37.910;2023-08-06T15:13:03;3.33;;;3.03;;
78895;SDS011;68284;59.124;37.910;2023-08-06T15:15:30;7.13;;;2.80;;
78895;SDS011;68284;59.124;37.910;2023-08-06T15:17:59;5.93;;;2.90;;
78895;SDS011;68284;59.124;37.910;2023-08-06T15:20:26;7.13;;;2.80;;
78895;SDS011;68284;59.124;37.910;2023-08-06T15:22:52;3.13;;;2.50;;
78895;SDS011;68284;59.124;37.910;2023-08-06T15:25:24;5.28;;;2.88;;
78895;SDS011;68284;59.124;37.910;2023-08-06T15:27:53;14.82;;;3.30;;
78895;SDS011;68284;59.124;37.910;2023-08-06T15:30:22;8.93;;;2.85;;
78895;SDS011;68284;59.124;37.910;2023-08-06T15:32:48;9.90;;;2.92;;
78895;SDS011;68284;59.124;37.910;2023-08-06T15:35:16;2.90;;;2.60;;
78895;SDS011;68284;59.124;37.910;2023-08-06T15:37:42;14.55;;;3.55;;
78895;SDS011;68284;59.124;37.910;2023-08-06T15:40:10;4.55;;;2.90;;
78895;SDS011;68284;59.124;37.910;2023-08-06T15:42:37;5.32;;;3.05;;
78895;SDS011;68284;59.124;37.910;2023-08-06T15:45:03;6.45;;;2.90;;
78895;SDS011;68284;59.124;37.910;2023-08-06T15:47:30;3.55;;;3.10;;